| time (UTC) | temp F | wind direction | speed knots | gust knots | rain 1hr in | rain 24hr in | rain mn in | humidity % | barometer mb |
| 20260504140103 | 52 | 262 | 0.0 | 0.0 | 0.00 | 0.00 | 0.00 | 54 | 945.0 |
| 20260504110117 | 41 | 201 | 0.0 | 0.0 | 0.00 | 0.00 | 0.00 | 69 | 945.6 |
| 20260504100104 | 40 | 211 | 0.0 | 0.0 | 0.00 | 0.00 | 0.00 | 69 | 945.3 |
| 20260504081537 | 42 | 217 | 0.0 | 0.0 | 0.00 | 0.00 | 0.00 | 64 | 945.5 |
| 20260504050002 | 45 | 211 | 0.0 | 0.0 | 0.00 | 0.00 | 0.00 | 57 | 945.5 |
| 20260504044506 | 45 | 178 | 0.0 | 0.0 | 0.00 | 0.00 | 0.00 | 59 | 945.5 |
| 20260504043001 | 45 | 135 | 0.0 | 0.0 | 0.00 | 0.00 | 0.00 | 59 | 945.6 |
| 20260504041501 | 46 | 111 | 0.0 | 0.0 | 0.00 | 0.00 | 0.00 | 59 | 945.5 |
| 20260504040107 | 47 | 32 | 0.0 | 0.0 | 0.00 | 0.00 | 0.00 | 58 | 945.6 |
| 20260504034605 | 47 | 32 | 0.0 | 0.0 | 0.00 | 0.00 | 0.00 | 58 | 945.6 |
| 20260504033115 | 47 | 32 | 0.0 | 0.0 | 0.00 | 0.00 | 0.00 | 58 | 945.6 |
| 20260504031554 | 47 | 32 | 0.0 | 0.0 | 0.00 | 0.00 | 0.00 | 57 | 945.6 |
| 20260504030053 | 47 | 32 | 0.0 | 0.0 | 0.00 | 0.00 | 0.00 | 57 | 945.7 |
| 20260504024552 | 47 | 32 | 0.0 | 0.0 | 0.00 | 0.00 | 0.00 | 56 | 945.7 |
| 20260504023052 | 47 | 22 | 0.0 | 0.0 | 0.00 | 0.00 | 0.00 | 55 | 945.9 |
| 20260504021551 | 47 | 24 | 0.0 | 0.0 | 0.00 | 0.00 | 0.00 | 55 | 945.9 |
| 20260504020049 | 47 | 35 | 0.0 | 0.0 | 0.00 | 0.00 | 0.00 | 54 | 945.7 |
| 20260504014550 | 47 | 5 | 0.0 | 0.0 | 0.00 | 0.00 | 0.00 | 53 | 945.8 |
| 20260504013050 | 47 | 38 | 0.0 | 0.0 | 0.00 | 0.00 | 0.00 | 53 | 945.6 |
| 20260504011557 | 48 | 9 | 0.0 | 0.0 | 0.00 | 0.00 | 0.00 | 53 | 945.5 |
| 20260504010059 | 48 | 229 | 0.0 | 0.0 | 0.00 | 0.00 | 0.00 | 53 | 945.3 |
| 20260504004554 | 48 | 223 | 0.0 | 0.0 | 0.00 | 0.00 | 0.00 | 53 | 945.2 |
| 20260504003054 | 48 | 223 | 0.0 | 0.0 | 0.00 | 0.00 | 0.00 | 52 | 945.0 |
| 20260504001515 | 48 | 22 | 0.0 | 0.0 | 0.00 | 0.00 | 0.00 | 52 | 944.8 |
| 20260504000013 | 49 | 22 | 0.0 | 0.0 | 0.00 | 0.00 | 0.00 | 53 | 944.8 |
| 20260503234512 | 49 | 22 | 0.0 | 0.0 | 0.00 | 0.00 | 0.00 | 52 | 944.9 |
| 20260503233010 | 49 | 22 | 0.0 | 0.0 | 0.00 | 0.00 | 0.00 | 51 | 944.8 |
| 20260503231508 | 49 | 23 | 0.0 | 0.0 | 0.00 | 0.00 | 0.00 | 51 | 944.8 |
| 20260503230006 | 50 | 332 | 0.0 | 0.0 | 0.00 | 0.00 | 0.00 | 50 | 944.8 |
| 20260503224507 | 50 | 11 | 0.0 | 0.0 | 0.00 | 0.00 | 0.00 | 50 | 944.8 |
| 20260503223004 | 50 | 30 | 0.0 | 0.0 | 0.00 | 0.00 | 0.00 | 51 | 944.8 |
| 20260503221551 | 50 | 224 | 0.0 | 0.0 | 0.00 | 0.00 | 0.00 | 50 | 944.8 |
| 20260503220106 | 50 | 9 | 0.0 | 0.0 | 0.00 | 0.00 | 0.00 | 49 | 944.9 |
| 20260503214553 | 49 | 15 | 0.0 | 0.0 | 0.00 | 0.00 | 0.00 | 52 | 944.9 |
| 20260503213050 | 49 | 341 | 0.0 | 0.0 | 0.00 | 0.00 | 0.00 | 49 | 944.8 |
| 20260503211601 | 50 | 259 | 0.0 | 0.0 | 0.00 | 0.00 | 0.00 | 46 | 944.6 |
| 20260503210049 | 51 | 62 | 0.0 | 0.0 | 0.00 | 0.00 | 0.00 | 44 | 944.4 |
| 20260503204553 | 51 | 70 | 0.0 | 0.0 | 0.00 | 0.00 | 0.00 | 42 | 944.4 |
| 20260503203046 | 50 | 90 | 0.0 | 0.0 | 0.00 | 0.00 | 0.00 | 43 | 944.4 |
| 20260503201502 | 51 | 360 | 0.0 | 0.0 | 0.00 | 0.00 | 0.00 | 41 | 944.3 |
| 20260503200001 | 50 | 61 | 0.0 | 0.0 | 0.00 | 0.00 | 0.00 | 41 | 944.5 |
| 20260503194600 | 51 | 350 | 0.0 | 0.0 | 0.00 | 0.00 | 0.00 | 40 | 944.5 |
| 20260503193124 | 51 | 44 | 0.0 | 0.0 | 0.00 | 0.00 | 0.00 | 39 | 944.7 |
| 20260503191521 | 51 | 67 | 0.0 | 0.0 | 0.00 | 0.00 | 0.00 | 41 | 944.9 |
| 20260503190021 | 50 | 25 | 0.0 | 0.0 | 0.00 | 0.00 | 0.00 | 38 | 944.9 |
| 20260503184521 | 51 | 47 | 0.0 | 0.0 | 0.00 | 0.00 | 0.00 | 38 | 945.1 |
| 20260503183023 | 50 | 12 | 0.0 | 0.0 | 0.00 | 0.00 | 0.00 | 38 | 945.4 |
| 20260503181533 | 49 | 341 | 0.0 | 0.0 | 0.00 | 0.00 | 0.00 | 37 | 945.4 |
| 20260503180021 | 49 | 61 | 0.0 | 0.0 | 0.00 | 0.00 | 0.00 | 39 | 945.4 |
| 20260503174520 | 49 | 248 | 0.0 | 0.0 | 0.00 | 0.00 | 0.00 | 41 | 945.7 |
| 20260503173037 | 47 | 15 | 0.0 | 0.0 | 0.00 | 0.00 | 0.00 | 41 | 946.0 |
| 20260503171518 | 47 | 70 | 0.0 | 0.0 | 0.00 | 0.00 | 0.00 | 43 | 945.9 |